Time;durP1;ratioP1;P1;durP2;ratioP2;P2;SDS_P1;SDS_P2;PMS_P1;PMS_P2;Temp;Humidity;BMP_temperature;BMP_pressure;BME280_temperature;BME280_humidity;BME280_pressure;Samples;Min_cycle;Max_cycle;Signal;HPM_P1;HPM_P2
2021/07/03 00:02:03;;;;;;;8.52;6.68;;;;;;;17.22;65.26;97356.06;5034872;28;20017;-76
2021/07/03 00:04:28;;;;;;;9.90;6.13;;;;;;;17.18;65.33;97349.81;5053613;28;20506;-76
2021/07/03 00:06:53;;;;;;;7.88;6.43;;;;;;;17.14;64.98;97343.56;5069406;28;20040;-76
2021/07/03 00:09:19;;;;;;;8.35;6.88;;;;;;;17.08;65.54;97344.66;5037034;28;20016;-76
2021/07/03 00:11:45;;;;;;;7.93;6.80;;;;;;;17.01;65.71;97340.53;5037228;28;20029;-76
2021/07/03 00:14:10;;;;;;;8.77;6.85;;;;;;;17.02;65.78;97347.38;5051742;28;20119;-76
2021/07/03 00:16:36;;;;;;;8.55;5.90;;;;;;;17.00;65.69;97340.84;5054005;28;20138;-76
2021/07/03 00:19:02;;;;;;;6.93;6.00;;;;;;;17.00;65.64;97346.88;5037574;28;20129;-76
2021/07/03 00:21:28;;;;;;;9.05;6.63;;;;;;;17.01;65.54;97343.16;5047672;28;20028;-76
2021/07/03 00:23:53;;;;;;;7.68;6.70;;;;;;;16.99;65.48;97347.16;5057822;28;20494;-76
2021/07/03 00:26:21;;;;;;;7.35;5.88;;;;;;;16.97;65.44;97339.53;5051977;28;20043;-76
2021/07/03 00:28:46;;;;;;;9.10;6.93;;;;;;;17.03;65.58;97342.88;5036275;28;20121;-76
2021/07/03 00:31:12;;;;;;;6.68;5.72;;;;;;;17.00;65.35;97338.97;5070702;28;20107;-76
2021/07/03 00:33:37;;;;;;;9.18;6.30;;;;;;;17.00;65.14;97338.97;5035148;28;20033;-76
2021/07/03 00:36:03;;;;;;;8.52;6.60;;;;;;;16.96;65.59;97337.19;5071582;28;20032;-76
2021/07/03 00:38:28;;;;;;;9.40;6.45;;;;;;;16.95;65.50;97338.25;5034814;28;20024;-76
2021/07/03 00:40:54;;;;;;;10.85;6.70;;;;;;;16.94;65.38;97339.31;5053751;28;20029;-76
2021/07/03 00:43:19;;;;;;;7.93;6.68;;;;;;;16.89;65.14;97342.78;5053836;28;20032;-76
2021/07/03 00:45:45;;;;;;;8.23;5.90;;;;;;;16.85;65.32;97337.31;5070238;28;20387;-76
2021/07/03 00:48:10;;;;;;;7.82;6.47;;;;;;;16.85;65.21;97345.19;5071541;28;20060;-76
2021/07/03 00:50:36;;;;;;;8.13;6.93;;;;;;;16.81;65.13;97346.00;5037349;28;20029;-76
2021/07/03 00:53:02;;;;;;;8.80;6.85;;;;;;;16.82;65.29;97344.94;5049825;28;20033;-76
2021/07/03 00:55:29;;;;;;;9.25;6.75;;;;;;;16.77;65.37;97339.72;5040444;28;20025;-76
2021/07/03 00:57:55;;;;;;;8.85;6.57;;;;;;;16.74;65.53;97337.66;5033503;28;20021;-76
2021/07/03 01:00:23;;;;;;;7.65;6.20;;;;;;;16.63;65.73;97345.66;5026087;28;20394;-76
2021/07/03 01:02:48;;;;;;;7.28;5.88;;;;;;;16.70;65.43;97339.28;5034277;28;20082;-76
2021/07/03 01:05:16;;;;;;;7.57;6.38;;;;;;;16.67;65.42;97343.25;5051386;28;20028;-76
2021/07/03 01:07:42;;;;;;;8.02;6.80;;;;;;;16.71;65.37;97343.47;5035812;28;20033;-76
2021/07/03 01:10:18;;;;;;;7.72;6.72;;;;;;;16.45;65.84;97346.38;5046672;28;20024;-76
2021/07/03 01:12:44;;;;;;;10.65;7.20;;;;;;;16.59;65.74;97354.41;5043256;28;20422;-76
2021/07/03 01:15:10;;;;;;;9.73;6.15;;;;;;;16.59;65.42;97347.28;5035342;28;20032;-76
2021/07/03 01:17:36;;;;;;;8.93;6.65;;;;;;;16.62;65.62;97349.38;5053211;28;20108;-76
2021/07/03 01:20:02;;;;;;;7.95;6.00;;;;;;;16.61;65.51;97349.63;5049763;28;20104;-76
2021/07/03 01:22:28;;;;;;;8.93;6.53;;;;;;;16.55;65.63;97348.88;5051157;28;20103;-76
2021/07/03 01:24:53;;;;;;;10.27;6.93;;;;;;;16.54;65.52;97349.97;5032553;28;20119;-76
2021/07/03 01:27:18;;;;;;;8.35;6.63;;;;;;;16.49;65.50;97355.28;5067012;28;20029;-76
2021/07/03 01:29:44;;;;;;;7.90;6.72;;;;;;;16.46;65.54;97353.19;5053020;28;20187;-76
2021/07/03 01:32:10;;;;;;;8.25;6.40;;;;;;;16.42;65.64;97352.19;5046220;28;20036;-76
2021/07/03 01:34:36;;;;;;;8.77;6.88;;;;;;;16.39;65.76;97355.38;5033676;28;20040;-76
2021/07/03 01:37:01;;;;;;;7.28;6.32;;;;;;;16.31;66.06;97348.84;5029117;28;20029;-76
2021/07/03 01:39:27;;;;;;;7.90;6.18;;;;;;;16.28;66.07;97352.06;5036283;28;20154;-76
2021/07/03 01:41:53;;;;;;;8.43;6.45;;;;;;;16.28;66.07;97354.69;5057082;28;20106;-76
2021/07/03 01:44:24;;;;;;;9.95;6.43;;;;;;;16.26;66.14;97356.78;5035139;28;20410;-77
2021/07/03 01:46:55;;;;;;;8.45;6.60;;;;;;;16.12;66.44;97351.38;5039293;28;20043;-76
2021/07/03 01:49:20;;;;;;;7.55;6.78;;;;;;;16.21;66.17;97355.00;5056330;28;20028;-76
2021/07/03 01:51:47;;;;;;;7.82;6.10;;;;;;;16.22;66.20;97350.53;5018346;28;20050;-76
2021/07/03 01:54:12;;;;;;;9.63;6.72;;;;;;;16.20;66.06;97350.03;5028968;28;20032;-76
2021/07/03 01:56:45;;;;;;;8.73;6.10;;;;;;;16.10;66.06;97343.00;5028965;28;20036;-76
2021/07/03 01:59:11;;;;;;;8.20;6.68;;;;;;;16.20;65.77;97345.53;5035692;28;20028;-76
2021/07/03 02:01:37;;;;;;;9.10;6.60;;;;;;;16.15;65.78;97335.09;5034744;28;20033;-76
2021/07/03 02:04:03;;;;;;;9.13;6.75;;;;;;;16.10;66.17;97338.53;5017713;28;20048;-76
2021/07/03 02:06:29;;;;;;;6.88;6.03;;;;;;;16.05;66.13;97332.53;5061048;28;20143;-76
2021/07/03 02:08:54;;;;;;;7.50;6.30;;;;;;;16.02;66.22;97333.91;5012188;28;20116;-76
2021/07/03 02:11:20;;;;;;;9.63;6.72;;;;;;;16.01;66.29;97331.53;5057511;28;20094;-76
2021/07/03 02:13:45;;;;;;;8.30;6.57;;;;;;;15.98;66.36;97334.72;5052143;28;20028;-76
2021/07/03 02:16:10;;;;;;;8.35;6.05;;;;;;;15.91;66.65;97341.03;5051751;28;20036;-76
2021/07/03 02:18:36;;;;;;;10.25;6.97;;;;;;;15.85;67.25;97341.34;5035826;28;20753;-76
2021/07/03 02:21:01;;;;;;;7.70;6.40;;;;;;;15.84;67.06;97345.06;5063470;28;20119;-76
2021/07/03 02:23:27;;;;;;;7.93;6.38;;;;;;;15.81;67.29;97338.50;5058908;28;20693;-77
2021/07/03 02:25:52;;;;;;;8.48;6.72;;;;;;;15.81;67.40;97337.72;5032045;28;20468;-76
2021/07/03 02:28:17;;;;;;;8.55;7.45;;;;;;;15.79;68.01;97345.09;5022598;28;20037;-76
2021/07/03 02:30:43;;;;;;;9.00;6.75;;;;;;;15.73;67.72;97333.81;5047502;28;20388;-77
2021/07/03 02:33:09;;;;;;;10.07;7.00;;;;;;;15.72;67.75;97337.50;5050463;28;20028;-76
2021/07/03 02:35:35;;;;;;;10.38;6.97;;;;;;;15.69;67.70;97327.53;5068276;28;20373;-76
2021/07/03 02:38:01;;;;;;;8.82;7.00;;;;;;;15.71;68.13;97330.66;5069857;28;20028;-76
2021/07/03 02:40:28;;;;;;;8.60;7.22;;;;;;;15.66;67.81;97328.88;5035611;28;20077;-76
2021/07/03 02:42:53;;;;;;;8.63;6.38;;;;;;;15.69;67.62;97333.56;5068672;28;20027;-76
2021/07/03 02:45:19;;;;;;;9.60;7.25;;;;;;;15.66;67.89;97328.06;5048091;28;20033;-76
2021/07/03 02:47:47;;;;;;;8.68;6.55;;;;;;;15.64;67.50;97317.84;5032730;28;20437;-76
2021/07/03 02:50:15;;;;;;;7.63;6.13;;;;;;;15.57;67.74;97325.25;5035366;28;20036;-76
2021/07/03 02:52:41;;;;;;;8.85;6.90;;;;;;;15.64;67.61;97324.94;5051342;28;20032;-77
2021/07/03 02:55:07;;;;;;;8.35;6.95;;;;;;;15.65;67.88;97322.03;5051632;28;20037;-76
2021/07/03 02:57:32;;;;;;;11.00;7.55;;;;;;;15.66;68.13;97325.44;5054674;28;20033;-77
2021/07/03 02:59:58;;;;;;;9.90;7.22;;;;;;;15.64;68.06;97312.59;5072695;28;20056;-76
2021/07/03 03:02:25;;;;;;;10.90;7.30;;;;;;;15.63;68.34;97316.28;5055712;28;20025;-76
2021/07/03 03:04:51;;;;;;;10.35;7.82;;;;;;;15.65;68.33;97321.28;5038731;28;20144;-76
2021/07/03 03:07:16;;;;;;;10.10;7.28;;;;;;;15.64;68.47;97315.22;5039043;28;20028;-76
2021/07/03 03:09:41;;;;;;;8.98;7.47;;;;;;;15.68;68.93;97320.72;5043310;28;20045;-76
2021/07/03 03:12:07;;;;;;;9.07;7.35;;;;;;;15.68;68.53;97318.09;5073556;28;20033;-76
2021/07/03 03:14:33;;;;;;;8.00;6.57;;;;;;;15.66;68.32;97315.75;5073299;28;20501;-76
2021/07/03 03:16:59;;;;;;;8.48;6.82;;;;;;;15.69;68.35;97317.03;5055719;28;20111;-76
2021/07/03 03:19:24;;;;;;;8.05;6.20;;;;;;;15.70;68.37;97316.00;5041045;28;20036;-76
2021/07/03 03:21:50;;;;;;;9.75;7.47;;;;;;;15.72;68.53;97311.25;5036207;28;20052;-76
2021/07/03 03:24:16;;;;;;;11.95;7.35;;;;;;;15.71;68.26;97317.53;5018695;28;20488;-76
2021/07/03 03:26:41;;;;;;;10.43;6.80;;;;;;;15.68;68.21;97318.09;5035519;28;20067;-77
2021/07/03 03:29:07;;;;;;;7.88;6.78;;;;;;;15.68;67.97;97315.47;5054854;28;20495;-77
2021/07/03 03:31:32;;;;;;;8.68;6.45;;;;;;;15.79;67.80;97327.50;5049776;28;20052;-77
2021/07/03 03:33:57;;;;;;;7.82;6.18;;;;;;;15.86;67.42;97324.56;5071882;28;20067;-77
2021/07/03 03:36:23;;;;;;;8.80;6.35;;;;;;;15.84;67.02;97330.06;5039721;28;20420;-77
2021/07/03 03:38:49;;;;;;;8.13;6.45;;;;;;;15.86;67.33;97324.56;5070890;28;20108;-77
2021/07/03 03:41:14;;;;;;;8.43;6.80;;;;;;;15.81;67.12;97320.13;5054987;28;20078;-76
2021/07/03 03:43:40;;;;;;;7.07;5.90;;;;;;;15.84;67.19;97324.81;5041594;28;20108;-77
2021/07/03 03:46:05;;;;;;;7.20;6.43;;;;;;;15.85;67.31;97315.09;5051858;28;20103;-77
2021/07/03 03:48:31;;;;;;;8.85;6.30;;;;;;;15.85;67.26;97312.47;5054863;28;20032;-76
2021/07/03 03:50:56;;;;;;;8.23;6.35;;;;;;;15.87;67.59;97313.78;5037819;28;20039;-77
2021/07/03 03:53:22;;;;;;;8.45;6.47;;;;;;;15.93;66.81;97319.75;5034209;28;20114;-76
2021/07/03 03:55:47;;;;;;;8.35;6.53;;;;;;;15.93;66.68;97308.50;5021643;28;20119;-76
2021/07/03 03:58:13;;;;;;;8.27;6.00;;;;;;;15.95;66.68;97307.13;5072689;28;20089;-76
2021/07/03 04:00:38;;;;;;;8.63;6.32;;;;;;;15.97;66.46;97306.88;5071397;28;20064;-76
2021/07/03 04:03:03;;;;;;;7.95;6.72;;;;;;;15.98;66.23;97300.56;5029755;28;20036;-76
2021/07/03 04:05:29;;;;;;;9.02;7.30;;;;;;;15.97;66.37;97301.63;5053982;28;20037;-77
2021/07/03 04:07:54;;;;;;;9.18;6.70;;;;;;;15.94;66.46;97310.84;5068288;28;20463;-76
2021/07/03 04:10:20;;;;;;;10.38;7.20;;;;;;;15.91;66.67;97306.13;5036443;28;20036;-77
2021/07/03 04:12:45;;;;;;;9.88;7.40;;;;;;;15.91;66.95;97303.50;5024513;28;20025;-77
2021/07/03 04:15:11;;;;;;;10.10;6.72;;;;;;;15.86;66.93;97300.94;5037401;28;20024;-77
2021/07/03 04:17:37;;;;;;;7.55;6.18;;;;;;;15.94;66.79;97308.22;5071014;28;20185;-77
2021/07/03 04:20:03;;;;;;;8.82;6.80;;;;;;;16.01;66.46;97305.28;5054275;28;20523;-76
2021/07/03 04:22:29;;;;;;;9.00;7.47;;;;;;;16.09;66.20;97304.66;5033536;28;20024;-77
2021/07/03 04:24:54;;;;;;;8.63;6.43;;;;;;;16.13;66.22;97307.53;5070656;28;20032;-77
2021/07/03 04:27:20;;;;;;;7.85;6.05;;;;;;;16.19;66.36;97304.56;5054296;28;20086;-77
2021/07/03 04:29:45;;;;;;;7.97;6.60;;;;;;;16.27;66.47;97303.19;5072184;28;20035;-77
2021/07/03 04:32:10;;;;;;;6.90;6.00;;;;;;;16.44;66.01;97300.91;5072050;28;20356;-77
2021/07/03 04:34:36;;;;;;;7.20;6.30;;;;;;;16.53;65.96;97311.59;5071477;28;20056;-76
2021/07/03 04:37:02;;;;;;;8.40;6.10;;;;;;;16.59;66.06;97302.59;5030576;28;20040;-77
2021/07/03 04:39:28;;;;;;;8.20;6.15;;;;;;;16.62;66.23;97304.69;5071722;28;20060;-76
2021/07/03 04:41:54;;;;;;;7.50;5.70;;;;;;;16.65;66.29;97300.69;5070822;28;20593;-76
2021/07/03 04:44:19;;;;;;;7.22;6.15;;;;;;;16.55;66.75;97300.81;5029722;28;20052;-76
2021/07/03 04:46:46;;;;;;;9.05;7.18;;;;;;;16.60;66.82;97308.63;5053796;28;20460;-76
2021/07/03 04:49:12;;;;;;;7.95;6.63;;;;;;;16.64;66.85;97302.53;5050973;28;20446;-76
2021/07/03 04:51:38;;;;;;;9.15;6.88;;;;;;;16.77;66.28;97302.94;5052081;28;20115;-76
2021/07/03 04:54:03;;;;;;;9.00;6.65;;;;;;;17.01;65.52;97298.44;5071005;28;20103;-76
2021/07/03 04:56:29;;;;;;;7.85;6.55;;;;;;;17.22;64.97;97292.91;5064951;28;20043;-76
2021/07/03 04:58:55;;;;;;;8.13;6.75;;;;;;;17.31;64.67;97296.47;5053704;28;20040;-76
2021/07/03 05:01:21;;;;;;;9.48;7.03;;;;;;;17.42;64.33;97303.16;5049904;28;20025;-76
2021/07/03 05:03:46;;;;;;;9.80;6.78;;;;;;;17.53;64.15;97292.47;5065930;28;20027;-76
2021/07/03 05:06:12;;;;;;;8.00;6.68;;;;;;;17.62;64.04;97296.03;5069044;28;20044;-76
2021/07/03 05:08:37;;;;;;;8.20;7.03;;;;;;;17.75;63.79;97299.78;5062524;28;20072;-76
2021/07/03 05:11:03;;;;;;;8.68;7.05;;;;;;;17.86;63.67;97295.94;5035917;28;20032;-76
2021/07/03 05:13:29;;;;;;;7.97;6.28;;;;;;;17.96;63.18;97293.16;5049050;28;20457;-76
2021/07/03 05:15:54;;;;;;;8.43;6.75;;;;;;;18.11;63.18;97300.03;5051435;28;20043;-76
2021/07/03 05:18:20;;;;;;;7.60;6.80;;;;;;;18.26;63.03;97291.03;5052247;28;20479;-76
2021/07/03 05:20:45;;;;;;;8.35;6.95;;;;;;;18.40;62.93;97285.78;5067681;28;20097;-76
2021/07/03 05:23:10;;;;;;;9.25;6.80;;;;;;;18.52;62.70;97296.66;5068824;28;20032;-76
2021/07/03 05:25:36;;;;;;;8.50;6.60;;;;;;;18.70;61.94;97286.28;5040667;28;20063;-76
2021/07/03 05:28:01;;;;;;;7.32;5.88;;;;;;;18.85;61.68;97293.94;5052183;28;20119;-76
2021/07/03 05:30:27;;;;;;;8.07;6.00;;;;;;;18.94;61.92;97296.66;5034858;28;20021;-76
2021/07/03 05:32:52;;;;;;;8.93;7.43;;;;;;;19.05;61.77;97286.66;5030185;28;20111;-76
2021/07/03 05:35:18;;;;;;;8.55;6.68;;;;;;;19.05;62.29;97286.66;5052416;28;20037;-76
2021/07/03 05:37:44;;;;;;;8.13;6.32;;;;;;;18.96;62.74;97278.66;5045168;28;20518;-76
2021/07/03 05:40:12;;;;;;;7.28;6.45;;;;;;;19.05;62.81;97282.16;5069466;28;20028;-76
2021/07/03 05:42:38;;;;;;;7.78;5.75;;;;;;;19.15;63.06;97281.16;5070441;28;20527;-76
2021/07/03 05:45:04;;;;;;;8.02;6.80;;;;;;;19.28;63.18;97284.84;5052281;28;20032;-76
2021/07/03 05:47:31;;;;;;;9.07;7.25;;;;;;;19.39;63.48;97277.47;5036069;28;20036;-76
2021/07/03 05:49:56;;;;;;;8.38;6.68;;;;;;;19.49;63.76;97285.16;5036121;28;20478;-76
2021/07/03 05:52:22;;;;;;;7.10;6.18;;;;;;;19.63;63.56;97288.53;5068813;28;20037;-76
2021/07/03 05:54:47;;;;;;;6.57;5.85;;;;;;;19.75;63.34;97285.38;5034041;28;20091;-76
2021/07/03 05:57:12;;;;;;;7.78;6.15;;;;;;;19.93;62.71;97286.28;5069388;28;20028;-76
2021/07/03 05:59:40;;;;;;;8.85;6.75;;;;;;;20.10;62.69;97290.06;5012679;28;20120;-76
2021/07/03 06:02:05;;;;;;;8.57;7.45;;;;;;;20.29;62.12;97295.16;5045630;28;20033;-76
2021/07/03 06:04:30;;;;;;;8.65;6.88;;;;;;;20.47;62.20;97290.72;5041915;28;20675;-76
2021/07/03 06:06:56;;;;;;;8.30;6.20;;;;;;;20.66;61.73;97291.28;5052301;28;20036;-76
2021/07/03 06:09:21;;;;;;;7.10;6.40;;;;;;;20.90;61.45;97287.44;5032696;28;20044;-76
2021/07/03 06:11:48;;;;;;;6.93;6.22;;;;;;;21.13;60.66;97298.72;5064862;28;20636;-76
2021/07/03 06:14:14;;;;;;;6.97;6.28;;;;;;;21.35;60.07;97286.41;5046674;28;20034;-76
2021/07/03 06:16:39;;;;;;;7.45;5.97;;;;;;;21.55;59.40;97296.38;5034483;28;20078;-76
2021/07/03 06:19:04;;;;;;;6.25;5.60;;;;;;;21.78;58.66;97281.09;5068921;28;20472;-76
2021/07/03 06:21:31;;;;;;;9.00;6.40;;;;;;;21.89;57.78;97287.63;5032115;28;20028;-76
2021/07/03 06:23:56;;;;;;;6.45;5.82;;;;;;;22.01;57.08;97283.53;5045393;28;20418;-76
2021/07/03 06:26:22;;;;;;;7.28;6.00;;;;;;;22.25;56.58;97288.31;5052764;28;20052;-76
2021/07/03 06:28:48;;;;;;;6.80;6.00;;;;;;;22.40;56.40;97282.50;5054642;28;20036;-76
2021/07/03 06:31:13;;;;;;;6.00;5.28;;;;;;;22.68;55.87;97278.63;5035035;28;20024;-76
2021/07/03 06:33:39;;;;;;;7.30;5.70;;;;;;;22.96;55.08;97282.38;5051758;28;20083;-76
2021/07/03 06:36:05;;;;;;;6.55;4.93;;;;;;;23.20;53.87;97278.31;5051253;28;20036;-76
2021/07/03 06:38:30;;;;;;;7.32;5.93;;;;;;;23.47;52.49;97278.88;5051775;28;20039;-76
2021/07/03 06:40:55;;;;;;;5.90;5.40;;;;;;;23.80;51.13;97281.53;5070058;28;20039;-76
2021/07/03 06:43:21;;;;;;;5.90;5.30;;;;;;;24.02;50.33;97277.75;5062983;28;20029;-76
2021/07/03 06:45:46;;;;;;;5.90;5.30;;;;;;;24.17;49.24;97276.34;5051332;28;20044;-76
2021/07/03 06:48:12;;;;;;;5.57;5.07;;;;;;;24.33;49.00;97276.44;5056318;28;20036;-76
2021/07/03 06:50:37;;;;;;;5.13;4.32;;;;;;;24.38;49.01;97264.81;5069625;28;20040;-76
2021/07/03 06:53:03;;;;;;;6.43;4.90;;;;;;;24.50;48.34;97280.78;5021235;28;20037;-76
2021/07/03 06:55:28;;;;;;;5.60;5.10;;;;;;;24.58;47.29;97277.28;5048424;28;20495;-76
2021/07/03 06:57:54;;;;;;;5.15;4.70;;;;;;;24.56;46.85;97279.50;5045540;28;20032;-76
2021/07/03 07:00:20;;;;;;;4.80;4.40;;;;;;;24.61;47.19;97278.50;5068366;28;20032;-76
2021/07/03 07:02:48;;;;;;;4.82;4.43;;;;;;;24.49;47.63;97285.34;5041754;28;20579;-76
2021/07/03 07:05:13;;;;;;;5.38;4.88;;;;;;;24.66;47.10;97286.28;5063361;28;20036;-76
2021/07/03 07:07:39;;;;;;;5.72;5.18;;;;;;;24.74;46.82;97293.34;5067654;28;20035;-76
2021/07/03 07:10:05;;;;;;;5.78;4.95;;;;;;;24.80;46.26;97297.34;5034755;28;20387;-76
2021/07/03 07:12:30;;;;;;;5.05;4.65;;;;;;;24.95;45.98;97297.75;5068302;28;20376;-76
2021/07/03 07:14:56;;;;;;;5.30;4.80;;;;;;;25.15;45.29;97288.84;5044041;28;20032;-76
2021/07/03 07:17:23;;;;;;;5.90;5.30;;;;;;;25.32;44.74;97290.50;5035113;28;20044;-76
2021/07/03 07:19:48;;;;;;;5.07;4.68;;;;;;;25.52;44.24;97293.31;5015601;28;20060;-76
2021/07/03 07:22:13;;;;;;;5.65;4.63;;;;;;;25.66;44.29;97295.59;5067151;28;20118;-76
2021/07/03 07:24:39;;;;;;;5.65;5.10;;;;;;;25.79;43.76;97294.44;5011842;28;20044;-75
2021/07/03 07:27:05;;;;;;;5.50;5.00;;;;;;;25.94;43.57;97295.56;5028465;28;20051;-75
2021/07/03 07:29:32;;;;;;;5.13;4.70;;;;;;;26.09;43.02;97296.72;5051674;28;20028;-76
2021/07/03 07:31:58;;;;;;;5.97;4.75;;;;;;;26.29;42.70;97297.63;5044157;28;20036;-75
2021/07/03 07:34:23;;;;;;;5.75;5.20;;;;;;;26.38;42.35;97300.09;5051383;28;20040;-76
2021/07/03 07:36:48;;;;;;;5.60;5.10;;;;;;;26.45;43.83;97293.03;5009485;28;20025;-75
2021/07/03 07:39:14;;;;;;;5.65;5.18;;;;;;;26.63;42.19;97284.69;5033248;28;20064;-75
2021/07/03 07:41:39;;;;;;;4.97;4.57;;;;;;;26.83;41.59;97285.50;5067760;28;20047;-75
2021/07/03 07:44:05;;;;;;;5.32;4.82;;;;;;;26.95;41.72;97279.28;5048288;28;20028;-75
2021/07/03 07:46:30;;;;;;;5.28;4.88;;;;;;;27.34;41.21;97271.31;5021561;28;20468;-75
2021/07/03 07:48:57;;;;;;;5.43;4.90;;;;;;;27.34;40.70;97274.00;5021693;28;20029;-76
2021/07/03 07:51:23;;;;;;;5.50;4.70;;;;;;;27.38;40.61;97272.91;5051736;28;20047;-76
2021/07/03 07:53:49;;;;;;;5.53;4.78;;;;;;;27.09;42.27;97269.66;5016363;28;20116;-75
2021/07/03 07:56:18;;;;;;;4.78;4.35;;;;;;;27.47;42.17;97267.38;5066125;28;20090;-75
2021/07/03 07:58:43;;;;;;;4.72;4.32;;;;;;;27.55;41.63;97270.94;5052965;28;20024;-75
2021/07/03 08:01:12;;;;;;;5.07;4.68;;;;;;;27.87;41.09;97260.06;5053554;28;20036;-76
2021/07/03 08:03:38;;;;;;;5.20;4.70;;;;;;;27.99;39.89;97263.34;5049460;28;20063;-75
2021/07/03 08:06:08;;;;;;;5.05;4.55;;;;;;;27.98;39.84;97259.16;5070763;28;20028;-75
2021/07/03 08:08:33;;;;;;;4.68;4.18;;;;;;;28.15;39.52;97265.13;5035200;28;20036;-75
2021/07/03 08:10:59;;;;;;;5.20;4.80;;;;;;;28.38;37.11;97257.09;5039977;28;20033;-75
2021/07/03 08:13:24;;;;;;;5.40;4.70;;;;;;;28.66;36.87;97261.34;5037450;28;20052;-75
2021/07/03 08:15:50;;;;;;;4.97;4.57;;;;;;;28.62;36.54;97253.25;5040132;28;20419;-75
2021/07/03 08:18:16;;;;;;;4.50;4.10;;;;;;;28.64;36.69;97247.53;5048226;28;20387;-75
2021/07/03 08:20:41;;;;;;;5.50;4.25;;;;;;;28.46;37.21;97247.25;5039107;28;20448;-75
2021/07/03 08:23:07;;;;;;;4.72;4.32;;;;;;;28.56;37.42;97252.78;5070125;28;20040;-75
2021/07/03 08:25:33;;;;;;;5.55;4.50;;;;;;;28.47;38.81;97254.16;5032159;28;20044;-74
2021/07/03 08:27:59;;;;;;;4.82;4.20;;;;;;;28.74;38.82;97246.91;5053548;28;20085;-75
2021/07/03 08:30:24;;;;;;;4.55;4.20;;;;;;;28.91;38.09;97249.06;5037608;28;20591;-75
2021/07/03 08:32:51;;;;;;;4.53;4.13;;;;;;;28.54;36.99;97246.22;5068984;28;20056;-74
2021/07/03 08:35:17;;;;;;;4.82;4.40;;;;;;;28.95;37.85;97247.19;5053227;28;20032;-75
2021/07/03 08:37:42;;;;;;;4.72;4.32;;;;;;;29.46;35.77;97250.50;5071442;28;20566;-75
2021/07/03 08:40:10;;;;;;;4.95;4.45;;;;;;;29.36;34.50;97243.09;5032201;28;20021;-75
2021/07/03 08:42:36;;;;;;;4.45;4.15;;;;;;;29.42;34.51;97241.63;5031189;28;20419;-74
2021/07/03 08:45:03;;;;;;;4.88;4.47;;;;;;;29.83;33.93;97247.03;5059713;28;20041;-75
2021/07/03 08:47:28;;;;;;;4.30;3.95;;;;;;;30.02;34.36;97238.78;5036030;28;20037;-75
2021/07/03 08:49:56;;;;;;;4.97;4.50;;;;;;;30.33;34.20;97244.78;5070429;28;20158;-75
2021/07/03 08:52:22;;;;;;;4.32;4.03;;;;;;;29.97;33.75;97232.97;5050786;28;20116;-75
2021/07/03 08:55:05;;;;;;;4.40;4.00;;;;;;;29.69;32.49;97237.69;5053097;28;20629;-75
2021/07/03 08:57:31;;;;;;;3.97;3.67;;;;;;;30.41;32.86;97235.63;5071287;28;20582;-75
2021/07/03 09:00:00;;;;;;;4.38;3.85;;;;;;;30.16;32.58;97229.28;5034808;28;20054;-74
2021/07/03 09:02:37;;;;;;;4.70;4.30;;;;;;;30.83;32.26;97227.41;5070272;28;20025;-75
2021/07/03 09:05:07;;;;;;;4.47;4.18;;;;;;;30.97;32.23;97222.13;5031585;28;20044;-76
2021/07/03 09:07:34;;;;;;;4.50;4.20;;;;;;;30.72;30.66;97217.38;5018151;28;20037;-75
2021/07/03 09:10:00;;;;;;;4.10;3.80;;;;;;;31.11;30.73;97224.09;5054965;28;20036;-76
2021/07/03 09:12:32;;;;;;;4.20;3.88;;;;;;;31.21;30.37;97223.38;5036379;28;20082;-76
2021/07/03 09:15:12;;;;;;;4.15;3.85;;;;;;;31.26;30.23;97217.63;5052565;28;20100;-76
2021/07/03 09:18:10;;;;;;;4.50;4.10;;;;;;;31.09;32.34;97224.47;5053153;28;20039;-76
2021/07/03 09:20:51;;;;;;;4.28;3.90;;;;;;;31.58;31.27;97221.56;5019806;28;20072;-76
2021/07/03 09:23:31;;;;;;;4.00;3.70;;;;;;;31.08;32.40;97228.31;5041215;28;20033;-76
2021/07/03 09:26:08;;;;;;;4.38;4.03;;;;;;;30.87;30.13;97222.84;5050338;28;20112;-76
2021/07/03 09:28:38;;;;;;;4.28;3.90;;;;;;;31.09;28.95;97219.09;5036738;28;20037;-77
2021/07/03 09:31:06;;;;;;;4.40;3.72;;;;;;;30.47;29.86;97229.91;5032712;28;20167;-76
2021/07/03 09:33:34;;;;;;;4.22;3.92;;;;;;;30.26;30.98;97217.84;5035636;28;20028;-76
2021/07/03 09:36:02;;;;;;;4.18;3.88;;;;;;;30.21;29.91;97220.88;5039391;28;20036;-76
2021/07/03 09:38:31;;;;;;;7.60;4.10;;;;;;;30.04;31.43;97211.53;5028419;28;20062;-76
2021/07/03 09:41:11;;;;;;;7.72;4.38;;;;;;;30.47;31.62;97211.88;5019002;28;20024;-76
2021/07/03 09:43:42;;;;;;;7.63;4.70;;;;;;;30.75;31.81;97211.25;5052537;28;20375;-76
2021/07/03 09:46:08;;;;;;;4.18;3.88;;;;;;;31.37;30.15;97214.94;5021475;28;20423;-76
2021/07/03 09:48:38;;;;;;;4.32;3.80;;;;;;;31.46;29.32;97219.97;5014210;28;20032;-76
2021/07/03 09:51:09;;;;;;;4.55;3.75;;;;;;;31.46;28.79;97211.88;5034479;28;20753;-76
2021/07/03 09:53:34;;;;;;;4.45;4.10;;;;;;;31.60;29.83;97208.47;5035148;28;20020;-76
2021/07/03 09:56:00;;;;;;;5.43;4.00;;;;;;;31.52;30.26;97203.09;5062161;28;20735;-76
2021/07/03 09:58:25;;;;;;;3.75;3.50;;;;;;;31.65;28.91;97216.97;5068723;28;20041;-76
2021/07/03 10:00:53;;;;;;;4.03;3.60;;;;;;;31.61;31.55;97204.66;5044494;28;20509;-77
2021/07/03 10:03:19;;;;;;;3.97;3.67;;;;;;;32.07;30.20;97201.97;5049929;28;20025;-76
2021/07/03 10:05:49;;;;;;;4.40;4.00;;;;;;;32.40;27.88;97201.94;5066898;28;20041;-75
2021/07/03 10:08:19;;;;;;;4.30;3.90;;;;;;;32.14;26.90;97197.75;5068978;28;20115;-76
2021/07/03 10:10:51;;;;;;;4.22;3.88;;;;;;;31.43;27.23;97194.59;5033520;28;20029;-76
2021/07/03 10:13:20;;;;;;;4.20;3.90;;;;;;;31.63;29.17;97195.03;5037826;28;20029;-75
2021/07/03 10:15:45;;;;;;;4.50;4.10;;;;;;;31.88;28.99;97194.28;5050842;28;20036;-76
2021/07/03 10:18:11;;;;;;;4.55;4.15;;;;;;;32.10;28.92;97195.06;5068883;28;20032;-76
2021/07/03 10:20:36;;;;;;;3.90;3.60;;;;;;;32.02;28.56;97185.44;5040352;28;20037;-76
2021/07/03 10:23:03;;;;;;;4.35;3.83;;;;;;;31.90;27.60;97178.50;5034311;28;20417;-77
2021/07/03 10:25:44;;;;;;;3.75;3.45;;;;;;;31.70;26.78;97186.97;5032821;28;20041;-75
2021/07/03 10:28:15;;;;;;;3.92;3.60;;;;;;;31.41;28.96;97180.75;5054727;28;20032;-75
2021/07/03 10:30:48;;;;;;;4.10;3.80;;;;;;;31.57;29.55;97179.66;5035774;28;20078;-75
2021/07/03 10:33:25;;;;;;;4.63;4.22;;;;;;;31.79;31.37;97181.22;5035204;28;20029;-76
2021/07/03 10:35:53;;;;;;;4.13;3.83;;;;;;;32.35;28.28;97181.53;5040312;28;20032;-76
2021/07/03 10:38:20;;;;;;;4.05;3.75;;;;;;;32.51;27.73;97181.13;5028592;28;20035;-74
2021/07/03 10:40:51;;;;;;;4.70;4.15;;;;;;;32.32;29.93;97181.56;5046782;28;20063;-75
2021/07/03 10:43:17;;;;;;;12.30;4.70;;;;;;;32.12;31.12;97173.91;5034254;28;20116;-75
2021/07/03 10:45:47;;;;;;;4.15;3.85;;;;;;;32.68;27.61;97182.28;5035543;28;20123;-74
2021/07/03 10:48:21;;;;;;;4.25;3.95;;;;;;;33.08;26.44;97182.84;5052029;28;20032;-74
2021/07/03 10:50:48;;;;;;;4.40;4.10;;;;;;;32.82;26.92;97182.19;5044904;28;20029;-74
2021/07/03 10:53:21;;;;;;;4.07;3.78;;;;;;;31.98;28.93;97179.25;5051375;28;20476;-74
2021/07/03 10:55:47;;;;;;;4.27;3.90;;;;;;;31.76;26.03;97176.59;5051563;28;20060;-74
2021/07/03 10:58:18;;;;;;;4.00;3.70;;;;;;;31.24;28.07;97181.47;5051341;28;20056;-75
2021/07/03 11:00:43;;;;;;;3.38;3.17;;;;;;;30.79;29.15;97174.41;5041331;28;20516;-74
2021/07/03 11:03:14;;;;;;;2.95;2.75;;;;;;;31.04;26.16;97173.00;5045604;28;20040;-74
2021/07/03 11:05:39;;;;;;;3.53;3.33;;;;;;;31.29;26.47;97162.28;5019072;28;20081;-74
2021/07/03 11:08:12;;;;;;;3.58;3.28;;;;;;;31.41;26.36;97164.63;5051393;28;20474;-74
2021/07/03 11:10:41;;;;;;;3.38;3.17;;;;;;;31.26;27.40;97163.81;5028414;28;20040;-74
2021/07/03 11:13:18;;;;;;;3.55;3.25;;;;;;;30.76;28.53;97156.34;5049300;28;20041;-74
2021/07/03 11:15:44;;;;;;;4.05;3.75;;;;;;;30.53;28.95;97151.25;5035584;28;20426;-74
2021/07/03 11:18:10;;;;;;;4.10;3.80;;;;;;;30.41;28.98;97144.28;5010137;28;20032;-74
2021/07/03 11:20:37;;;;;;;3.72;3.45;;;;;;;30.67;30.33;97153.22;5036523;28;20115;-74
2021/07/03 11:23:04;;;;;;;3.50;3.20;;;;;;;30.53;29.86;97153.16;5048622;28;20052;-74
2021/07/03 11:25:46;;;;;;;3.88;3.58;;;;;;;30.58;28.82;97148.19;5062749;28;20044;-74
2021/07/03 11:28:20;;;;;;;3.17;2.97;;;;;;;30.82;27.33;97143.31;5065674;28;20039;-74
2021/07/03 11:30:48;;;;;;;3.47;3.00;;;;;;;30.65;27.84;97146.69;5067451;28;20640;-73
2021/07/03 11:33:14;;;;;;;3.65;3.30;;;;;;;30.61;29.88;97144.75;5055272;28;20123;-74